<?xml version="1.0" encoding="UTF-8" standalone="no" ?>
<gpx version="1.1" creator="Visorando" xmlns:xsi="http://www.w3.org/2001/XMLSchema-instance" xmlns="http://www.topografix.com/GPX/1/1" xsi:schemaLocation="http://www.topografix.com/GPX/1/1 http://www.topografix.com/GPX/1/1/gpx.xsd">
 <metadata>
  <name>Randonnée du 18/01/2021 à 15:24</name>
  <link href="https://www.visorando.com/randonnee-/4619864">
   <text>https://www.visorando.com/randonnee-/4619864</text>
  </link>
 </metadata>
 <trk>
  <name>Randonnée du 18/01/2021 à 15:24</name>
  <trkseg>
   <trkpt lat="47.87506" lon="6.761866">
    <ele>497</ele>
    <time>2021-01-18T15:24:51+01:00</time>
   </trkpt>
   <trkpt lat="47.875261" lon="6.76045">
    <ele>497</ele>
    <time>2021-01-18T15:24:56+01:00</time>
   </trkpt>
   <trkpt lat="47.875578" lon="6.75942">
    <ele>495</ele>
    <time>2021-01-18T15:25:01+01:00</time>
   </trkpt>
   <trkpt lat="47.876096" lon="6.758047">
    <ele>494</ele>
    <time>2021-01-18T15:25:06+01:00</time>
   </trkpt>
   <trkpt lat="47.876758" lon="6.756974">
    <ele>497</ele>
    <time>2021-01-18T15:25:11+01:00</time>
   </trkpt>
   <trkpt lat="47.877132" lon="6.756459">
    <ele>496</ele>
    <time>2021-01-18T15:25:16+01:00</time>
   </trkpt>
   <trkpt lat="47.877017" lon="6.756202">
    <ele>497</ele>
    <time>2021-01-18T15:25:21+01:00</time>
   </trkpt>
   <trkpt lat="47.876816" lon="6.756159">
    <ele>498</ele>
    <time>2021-01-18T15:25:26+01:00</time>
   </trkpt>
   <trkpt lat="47.876326" lon="6.755644">
    <ele>502</ele>
    <time>2021-01-18T15:25:31+01:00</time>
   </trkpt>
   <trkpt lat="47.876297" lon="6.7553">
    <ele>505</ele>
    <time>2021-01-18T15:25:36+01:00</time>
   </trkpt>
   <trkpt lat="47.876125" lon="6.754571">
    <ele>511</ele>
    <time>2021-01-18T15:25:41+01:00</time>
   </trkpt>
   <trkpt lat="47.875607" lon="6.754614">
    <ele>515</ele>
    <time>2021-01-18T15:25:46+01:00</time>
   </trkpt>
   <trkpt lat="47.87529" lon="6.754614">
    <ele>517</ele>
    <time>2021-01-18T15:25:51+01:00</time>
   </trkpt>
   <trkpt lat="47.875031" lon="6.754614">
    <ele>519</ele>
    <time>2021-01-18T15:25:56+01:00</time>
   </trkpt>
   <trkpt lat="47.874599" lon="6.754871">
    <ele>522</ele>
    <time>2021-01-18T15:26:01+01:00</time>
   </trkpt>
   <trkpt lat="47.874254" lon="6.754742">
    <ele>526</ele>
    <time>2021-01-18T15:26:06+01:00</time>
   </trkpt>
   <trkpt lat="47.874023" lon="6.754442">
    <ele>530</ele>
    <time>2021-01-18T15:26:11+01:00</time>
   </trkpt>
   <trkpt lat="47.87362" lon="6.754142">
    <ele>537</ele>
    <time>2021-01-18T15:26:16+01:00</time>
   </trkpt>
   <trkpt lat="47.87339" lon="6.753798">
    <ele>541</ele>
    <time>2021-01-18T15:26:21+01:00</time>
   </trkpt>
   <trkpt lat="47.873304" lon="6.753326">
    <ele>545</ele>
    <time>2021-01-18T15:26:26+01:00</time>
   </trkpt>
   <trkpt lat="47.873304" lon="6.753026">
    <ele>549</ele>
    <time>2021-01-18T15:26:31+01:00</time>
   </trkpt>
   <trkpt lat="47.873217" lon="6.752554">
    <ele>552</ele>
    <time>2021-01-18T15:26:36+01:00</time>
   </trkpt>
   <trkpt lat="47.873246" lon="6.751781">
    <ele>560</ele>
    <time>2021-01-18T15:26:41+01:00</time>
   </trkpt>
   <trkpt lat="47.873304" lon="6.751137">
    <ele>566</ele>
    <time>2021-01-18T15:26:46+01:00</time>
   </trkpt>
   <trkpt lat="47.874254" lon="6.750279">
    <ele>572</ele>
    <time>2021-01-18T15:26:51+01:00</time>
   </trkpt>
   <trkpt lat="47.874398" lon="6.750193">
    <ele>572</ele>
    <time>2021-01-18T15:26:56+01:00</time>
   </trkpt>
   <trkpt lat="47.874772" lon="6.749507">
    <ele>575</ele>
    <time>2021-01-18T15:27:01+01:00</time>
   </trkpt>
   <trkpt lat="47.87506" lon="6.749335">
    <ele>575</ele>
    <time>2021-01-18T15:27:06+01:00</time>
   </trkpt>
   <trkpt lat="47.87552" lon="6.749635">
    <ele>576</ele>
    <time>2021-01-18T15:27:11+01:00</time>
   </trkpt>
   <trkpt lat="47.875751" lon="6.750494">
    <ele>578</ele>
    <time>2021-01-18T15:27:16+01:00</time>
   </trkpt>
   <trkpt lat="47.875837" lon="6.751352">
    <ele>581</ele>
    <time>2021-01-18T15:27:21+01:00</time>
   </trkpt>
   <trkpt lat="47.875693" lon="6.750537">
    <ele>579</ele>
    <time>2021-01-18T15:27:26+01:00</time>
   </trkpt>
   <trkpt lat="47.875491" lon="6.749678">
    <ele>577</ele>
    <time>2021-01-18T15:27:31+01:00</time>
   </trkpt>
   <trkpt lat="47.875117" lon="6.749335">
    <ele>575</ele>
    <time>2021-01-18T15:27:36+01:00</time>
   </trkpt>
   <trkpt lat="47.874714" lon="6.749464">
    <ele>573</ele>
    <time>2021-01-18T15:27:41+01:00</time>
   </trkpt>
   <trkpt lat="47.874369" lon="6.750065">
    <ele>572</ele>
    <time>2021-01-18T15:27:46+01:00</time>
   </trkpt>
   <trkpt lat="47.873908" lon="6.75058">
    <ele>571</ele>
    <time>2021-01-18T15:27:51+01:00</time>
   </trkpt>
   <trkpt lat="47.87339" lon="6.75118">
    <ele>567</ele>
    <time>2021-01-18T15:27:56+01:00</time>
   </trkpt>
   <trkpt lat="47.873333" lon="6.75118">
    <ele>566</ele>
    <time>2021-01-18T15:28:01+01:00</time>
   </trkpt>
   <trkpt lat="47.87316" lon="6.750537">
    <ele>568</ele>
    <time>2021-01-18T15:28:06+01:00</time>
   </trkpt>
   <trkpt lat="47.873131" lon="6.750108">
    <ele>570</ele>
    <time>2021-01-18T15:28:11+01:00</time>
   </trkpt>
   <trkpt lat="47.87316" lon="6.749593">
    <ele>574</ele>
    <time>2021-01-18T15:28:16+01:00</time>
   </trkpt>
   <trkpt lat="47.872987" lon="6.749249">
    <ele>577</ele>
    <time>2021-01-18T15:28:21+01:00</time>
   </trkpt>
   <trkpt lat="47.872872" lon="6.749078">
    <ele>579</ele>
    <time>2021-01-18T15:28:26+01:00</time>
   </trkpt>
   <trkpt lat="47.872757" lon="6.748605">
    <ele>582</ele>
    <time>2021-01-18T15:28:31+01:00</time>
   </trkpt>
   <trkpt lat="47.872642" lon="6.747919">
    <ele>584</ele>
    <time>2021-01-18T15:28:36+01:00</time>
   </trkpt>
   <trkpt lat="47.87267" lon="6.747189">
    <ele>585</ele>
    <time>2021-01-18T15:28:41+01:00</time>
   </trkpt>
   <trkpt lat="47.872757" lon="6.746889">
    <ele>589</ele>
    <time>2021-01-18T15:28:46+01:00</time>
   </trkpt>
   <trkpt lat="47.872527" lon="6.746202">
    <ele>591</ele>
    <time>2021-01-18T15:28:51+01:00</time>
   </trkpt>
   <trkpt lat="47.872239" lon="6.74573">
    <ele>598</ele>
    <time>2021-01-18T15:28:56+01:00</time>
   </trkpt>
   <trkpt lat="47.871922" lon="6.745387">
    <ele>603</ele>
    <time>2021-01-18T15:29:01+01:00</time>
   </trkpt>
   <trkpt lat="47.871663" lon="6.745086">
    <ele>609</ele>
    <time>2021-01-18T15:29:06+01:00</time>
   </trkpt>
   <trkpt lat="47.871433" lon="6.744786">
    <ele>612</ele>
    <time>2021-01-18T15:29:11+01:00</time>
   </trkpt>
   <trkpt lat="47.871317" lon="6.744529">
    <ele>614</ele>
    <time>2021-01-18T15:29:16+01:00</time>
   </trkpt>
   <trkpt lat="47.871404" lon="6.743928">
    <ele>623</ele>
    <time>2021-01-18T15:29:21+01:00</time>
   </trkpt>
   <trkpt lat="47.871404" lon="6.743112">
    <ele>634</ele>
    <time>2021-01-18T15:29:26+01:00</time>
   </trkpt>
   <trkpt lat="47.871404" lon="6.741653">
    <ele>639</ele>
    <time>2021-01-18T15:29:31+01:00</time>
   </trkpt>
   <trkpt lat="47.871634" lon="6.741009">
    <ele>637</ele>
    <time>2021-01-18T15:29:36+01:00</time>
   </trkpt>
   <trkpt lat="47.87172" lon="6.740666">
    <ele>632</ele>
    <time>2021-01-18T15:29:41+01:00</time>
   </trkpt>
   <trkpt lat="47.871634" lon="6.739679">
    <ele>622</ele>
    <time>2021-01-18T15:29:46+01:00</time>
   </trkpt>
   <trkpt lat="47.871577" lon="6.739507">
    <ele>621</ele>
    <time>2021-01-18T15:29:51+01:00</time>
   </trkpt>
   <trkpt lat="47.872095" lon="6.740065">
    <ele>610</ele>
    <time>2021-01-18T15:29:56+01:00</time>
   </trkpt>
   <trkpt lat="47.872728" lon="6.740924">
    <ele>601</ele>
    <time>2021-01-18T15:30:01+01:00</time>
   </trkpt>
   <trkpt lat="47.872987" lon="6.742254">
    <ele>602</ele>
    <time>2021-01-18T15:30:06+01:00</time>
   </trkpt>
   <trkpt lat="47.87316" lon="6.743413">
    <ele>600</ele>
    <time>2021-01-18T15:30:11+01:00</time>
   </trkpt>
   <trkpt lat="47.873361" lon="6.743885">
    <ele>593</ele>
    <time>2021-01-18T15:30:16+01:00</time>
   </trkpt>
   <trkpt lat="47.873505" lon="6.743842">
    <ele>587</ele>
    <time>2021-01-18T15:30:21+01:00</time>
   </trkpt>
   <trkpt lat="47.873476" lon="6.742984">
    <ele>587</ele>
    <time>2021-01-18T15:30:26+01:00</time>
   </trkpt>
   <trkpt lat="47.873592" lon="6.742597">
    <ele>579</ele>
    <time>2021-01-18T15:30:31+01:00</time>
   </trkpt>
   <trkpt lat="47.873822" lon="6.742597">
    <ele>573</ele>
    <time>2021-01-18T15:30:36+01:00</time>
   </trkpt>
   <trkpt lat="47.873937" lon="6.742812">
    <ele>570</ele>
    <time>2021-01-18T15:30:41+01:00</time>
   </trkpt>
   <trkpt lat="47.873995" lon="6.743198">
    <ele>570</ele>
    <time>2021-01-18T15:30:46+01:00</time>
   </trkpt>
   <trkpt lat="47.874139" lon="6.743499">
    <ele>572</ele>
    <time>2021-01-18T15:30:51+01:00</time>
   </trkpt>
   <trkpt lat="47.874426" lon="6.74337">
    <ele>567</ele>
    <time>2021-01-18T15:30:56+01:00</time>
   </trkpt>
   <trkpt lat="47.874657" lon="6.743112">
    <ele>560</ele>
    <time>2021-01-18T15:31:01+01:00</time>
   </trkpt>
   <trkpt lat="47.875837" lon="6.743112">
    <ele>544</ele>
    <time>2021-01-18T15:31:06+01:00</time>
   </trkpt>
   <trkpt lat="47.876154" lon="6.743155">
    <ele>539</ele>
    <time>2021-01-18T15:31:11+01:00</time>
   </trkpt>
   <trkpt lat="47.876758" lon="6.742941">
    <ele>535</ele>
    <time>2021-01-18T15:31:16+01:00</time>
   </trkpt>
   <trkpt lat="47.877247" lon="6.743241">
    <ele>532</ele>
    <time>2021-01-18T15:31:21+01:00</time>
   </trkpt>
   <trkpt lat="47.877765" lon="6.743756">
    <ele>526</ele>
    <time>2021-01-18T15:31:26+01:00</time>
   </trkpt>
   <trkpt lat="47.878168" lon="6.743885">
    <ele>522</ele>
    <time>2021-01-18T15:31:31+01:00</time>
   </trkpt>
   <trkpt lat="47.878543" lon="6.7444">
    <ele>518</ele>
    <time>2021-01-18T15:31:36+01:00</time>
   </trkpt>
   <trkpt lat="47.878543" lon="6.744958">
    <ele>515</ele>
    <time>2021-01-18T15:31:41+01:00</time>
   </trkpt>
   <trkpt lat="47.879176" lon="6.745258">
    <ele>509</ele>
    <time>2021-01-18T15:31:46+01:00</time>
   </trkpt>
   <trkpt lat="47.879492" lon="6.745344">
    <ele>504</ele>
    <time>2021-01-18T15:31:51+01:00</time>
   </trkpt>
   <trkpt lat="47.879694" lon="6.746031">
    <ele>501</ele>
    <time>2021-01-18T15:31:56+01:00</time>
   </trkpt>
   <trkpt lat="47.879953" lon="6.746803">
    <ele>496</ele>
    <time>2021-01-18T15:32:01+01:00</time>
   </trkpt>
   <trkpt lat="47.880011" lon="6.747061">
    <ele>495</ele>
    <time>2021-01-18T15:32:06+01:00</time>
   </trkpt>
   <trkpt lat="47.879924" lon="6.747576">
    <ele>494</ele>
    <time>2021-01-18T15:32:11+01:00</time>
   </trkpt>
   <trkpt lat="47.879665" lon="6.747576">
    <ele>496</ele>
    <time>2021-01-18T15:32:16+01:00</time>
   </trkpt>
   <trkpt lat="47.879205" lon="6.74779">
    <ele>498</ele>
    <time>2021-01-18T15:32:21+01:00</time>
   </trkpt>
   <trkpt lat="47.878888" lon="6.748176">
    <ele>500</ele>
    <time>2021-01-18T15:32:26+01:00</time>
   </trkpt>
   <trkpt lat="47.879118" lon="6.748648">
    <ele>496</ele>
    <time>2021-01-18T15:32:31+01:00</time>
   </trkpt>
   <trkpt lat="47.87909" lon="6.749078">
    <ele>499</ele>
    <time>2021-01-18T15:32:36+01:00</time>
   </trkpt>
   <trkpt lat="47.878658" lon="6.749421">
    <ele>502</ele>
    <time>2021-01-18T15:32:41+01:00</time>
   </trkpt>
   <trkpt lat="47.878399" lon="6.749292">
    <ele>504</ele>
    <time>2021-01-18T15:32:46+01:00</time>
   </trkpt>
   <trkpt lat="47.878226" lon="6.749678">
    <ele>503</ele>
    <time>2021-01-18T15:32:51+01:00</time>
   </trkpt>
   <trkpt lat="47.87814" lon="6.750408">
    <ele>503</ele>
    <time>2021-01-18T15:32:56+01:00</time>
   </trkpt>
   <trkpt lat="47.878082" lon="6.751009">
    <ele>505</ele>
    <time>2021-01-18T15:33:01+01:00</time>
   </trkpt>
   <trkpt lat="47.877967" lon="6.751781">
    <ele>508</ele>
    <time>2021-01-18T15:33:06+01:00</time>
   </trkpt>
   <trkpt lat="47.877852" lon="6.752382">
    <ele>508</ele>
    <time>2021-01-18T15:33:11+01:00</time>
   </trkpt>
   <trkpt lat="47.877852" lon="6.752983">
    <ele>505</ele>
    <time>2021-01-18T15:33:16+01:00</time>
   </trkpt>
   <trkpt lat="47.877823" lon="6.753627">
    <ele>501</ele>
    <time>2021-01-18T15:33:21+01:00</time>
   </trkpt>
   <trkpt lat="47.877535" lon="6.754399">
    <ele>500</ele>
    <time>2021-01-18T15:33:26+01:00</time>
   </trkpt>
   <trkpt lat="47.877276" lon="6.755129">
    <ele>499</ele>
    <time>2021-01-18T15:33:31+01:00</time>
   </trkpt>
   <trkpt lat="47.876988" lon="6.755601">
    <ele>500</ele>
    <time>2021-01-18T15:33:36+01:00</time>
   </trkpt>
   <trkpt lat="47.877075" lon="6.756244">
    <ele>497</ele>
    <time>2021-01-18T15:33:41+01:00</time>
   </trkpt>
   <trkpt lat="47.877132" lon="6.756416">
    <ele>496</ele>
    <time>2021-01-18T15:33:46+01:00</time>
   </trkpt>
   <trkpt lat="47.876758" lon="6.756888">
    <ele>497</ele>
    <time>2021-01-18T15:33:51+01:00</time>
   </trkpt>
   <trkpt lat="47.876441" lon="6.757489">
    <ele>495</ele>
    <time>2021-01-18T15:33:56+01:00</time>
   </trkpt>
   <trkpt lat="47.875952" lon="6.75839">
    <ele>495</ele>
    <time>2021-01-18T15:34:01+01:00</time>
   </trkpt>
   <trkpt lat="47.875607" lon="6.759163">
    <ele>495</ele>
    <time>2021-01-18T15:34:06+01:00</time>
   </trkpt>
   <trkpt lat="47.875405" lon="6.759806">
    <ele>496</ele>
    <time>2021-01-18T15:34:11+01:00</time>
   </trkpt>
   <trkpt lat="47.875261" lon="6.76045">
    <ele>497</ele>
    <time>2021-01-18T15:34:16+01:00</time>
   </trkpt>
   <trkpt lat="47.875175" lon="6.761051">
    <ele>497</ele>
    <time>2021-01-18T15:34:21+01:00</time>
   </trkpt>
   <trkpt lat="47.875146" lon="6.761523">
    <ele>497</ele>
    <time>2021-01-18T15:34:26+01:00</time>
   </trkpt>
   <trkpt lat="47.875117" lon="6.761823">
    <ele>497</ele>
    <time>2021-01-18T15:34:31+01:00</time>
   </trkpt>
  </trkseg>
 </trk></gpx>